createdAt,value
2019-05-14T00:02:46.624Z,8.70
2019-05-14T00:05:51.724Z,8.70
2019-05-14T00:08:56.273Z,8.70
2019-05-14T00:12:02.603Z,8.70
2019-05-14T00:15:06.875Z,8.60
2019-05-14T00:18:11.764Z,8.60
2019-05-14T00:21:16.283Z,8.60
2019-05-14T00:24:21.747Z,8.60
2019-05-14T00:27:26.097Z,8.60
2019-05-14T00:30:31.623Z,8.50
2019-05-14T00:33:36.096Z,8.50
2019-05-14T00:36:41.739Z,8.50
2019-05-14T00:39:46.242Z,8.50
2019-05-14T00:42:53.083Z,8.50
2019-05-14T00:45:56.676Z,8.50
2019-05-14T00:49:01.775Z,8.50
2019-05-14T00:52:06.308Z,8.50
2019-05-14T00:55:11.725Z,8.50
2019-05-14T00:58:16.274Z,8.50
2019-05-14T01:01:21.464Z,8.50
2019-05-14T01:04:25.950Z,8.50
2019-05-14T01:07:31.652Z,8.50
2019-05-14T01:10:35.980Z,8.50
2019-05-14T01:13:41.709Z,8.50
2019-05-14T01:16:46.303Z,8.50
2019-05-14T01:19:51.317Z,8.40
2019-05-14T01:22:55.826Z,8.40
2019-05-14T01:26:02.335Z,8.40
2019-05-14T01:29:06.872Z,8.40
2019-05-14T01:32:11.721Z,8.40
2019-05-14T01:35:16.269Z,8.40
2019-05-14T01:38:22.207Z,8.40
2019-05-14T01:41:26.632Z,8.40
2019-05-14T01:44:31.886Z,8.40
2019-05-14T01:47:36.348Z,8.30
2019-05-14T01:50:41.435Z,8.30
2019-05-14T01:53:45.844Z,8.30
2019-05-14T01:56:51.690Z,8.30
2019-05-14T01:59:56.015Z,8.30
2019-05-14T02:03:01.871Z,8.30
2019-05-14T02:06:07.177Z,8.30
2019-05-14T02:09:11.569Z,8.30
2019-05-14T02:12:15.847Z,8.30
2019-05-14T02:15:21.364Z,8.30
2019-05-14T02:18:25.882Z,8.30
2019-05-14T02:21:31.694Z,8.30
2019-05-14T02:24:36.271Z,8.30
2019-05-14T02:27:41.364Z,8.30
2019-05-14T02:30:55.917Z,8.20
2019-05-14T02:33:52.044Z,8.20
2019-05-14T02:36:56.279Z,8.20
2019-05-14T02:40:00.669Z,8.20
2019-05-14T02:43:04.989Z,8.10
2019-05-14T02:46:13.104Z,8.20
2019-05-14T02:49:15.290Z,8.20
2019-05-14T02:52:20.577Z,8.20
2019-05-14T02:55:25.208Z,8.20
2019-05-14T02:58:30.135Z,8.20
2019-05-14T03:01:34.628Z,8.20
2019-05-14T03:04:39.660Z,8.20
2019-05-14T03:07:44.377Z,8.20
2019-05-14T03:10:50.437Z,8.20
2019-05-14T03:13:54.752Z,8.20
2019-05-14T03:16:59.650Z,8.20
2019-05-14T03:20:04.952Z,8.20
2019-05-14T03:23:15.667Z,8.20
2019-05-14T03:26:15.266Z,8.20
2019-05-14T03:29:19.858Z,8.20
2019-05-14T03:32:24.288Z,8.20
2019-05-14T03:35:40.115Z,8.20
2019-05-14T03:38:34.649Z,8.20
2019-05-14T03:41:39.847Z,8.20
2019-05-14T03:44:44.451Z,8.10
2019-05-14T03:47:50.364Z,8.10
2019-05-14T03:50:55.071Z,8.10
2019-05-14T03:54:06.645Z,8.10
2019-05-14T03:57:05.533Z,8.20
2019-05-14T04:00:11.030Z,8.20
2019-05-14T04:03:15.569Z,8.20
2019-05-14T04:06:21.036Z,8.20
2019-05-14T04:09:29.390Z,8.20
2019-05-14T04:12:34.510Z,8.20
2019-05-14T04:15:41.115Z,8.20
2019-05-14T04:18:50.102Z,8.20
2019-05-14T04:21:55.632Z,8.20
2019-05-14T04:25:00.827Z,8.20
2019-05-14T04:28:06.104Z,8.20
2019-05-14T04:31:11.925Z,8.20
2019-05-14T04:34:19.328Z,8.20
2019-05-14T04:37:22.625Z,8.20
2019-05-14T04:40:29.675Z,8.20
2019-05-14T04:43:32.998Z,8.20
2019-05-14T04:46:39.542Z,8.20
2019-05-14T04:49:43.431Z,8.30
2019-05-14T04:52:49.452Z,8.30
2019-05-14T04:55:54.583Z,8.30
2019-05-14T04:58:59.775Z,8.30
2019-05-14T05:02:04.259Z,8.30
2019-05-14T05:05:09.669Z,8.30
2019-05-14T05:08:14.757Z,8.30
2019-05-14T05:11:21.391Z,8.40
2019-05-14T05:14:25.228Z,8.40
2019-05-14T05:17:42.829Z,8.40
2019-05-14T05:20:39.248Z,8.40
2019-05-14T05:23:42.364Z,8.50
2019-05-14T05:26:48.579Z,8.50
2019-05-14T05:29:53.083Z,8.50
2019-05-14T05:32:59.692Z,8.50
2019-05-14T05:36:03.788Z,8.50
2019-05-14T05:39:09.039Z,8.60
2019-05-14T05:42:13.522Z,8.60
2019-05-14T05:45:18.637Z,8.70
2019-05-14T05:48:23.226Z,8.70
2019-05-14T05:51:28.856Z,8.70
2019-05-14T05:54:35.172Z,8.70
2019-05-14T05:57:39.628Z,8.70
2019-05-14T06:00:44.000Z,8.70
2019-05-14T06:03:49.356Z,8.70
2019-05-14T06:06:53.869Z,8.70
2019-05-14T06:09:58.955Z,8.80
2019-05-14T06:13:03.423Z,8.80
2019-05-14T06:16:09.474Z,8.80
2019-05-14T06:19:13.812Z,8.80
2019-05-14T06:22:18.829Z,8.80
2019-05-14T06:25:24.277Z,8.90
2019-05-14T06:28:33.313Z,8.90
2019-05-14T06:31:34.786Z,8.90
2019-05-14T06:34:39.317Z,8.80
2019-05-14T06:37:43.740Z,8.80
2019-05-14T06:40:48.930Z,8.80
2019-05-14T06:43:53.517Z,8.80
2019-05-14T06:46:59.102Z,8.80
2019-05-14T06:50:03.836Z,8.80
2019-05-14T06:53:08.573Z,8.80
2019-05-14T06:56:13.152Z,8.80
2019-05-14T06:59:18.527Z,8.80
2019-05-14T07:02:23.222Z,8.80
2019-05-14T07:05:28.163Z,8.80
2019-05-14T07:08:32.480Z,8.80
2019-05-14T07:11:38.806Z,8.80
2019-05-14T07:14:42.923Z,8.80
2019-05-14T07:17:48.788Z,8.80
2019-05-14T07:20:53.435Z,8.80
2019-05-14T07:23:59.345Z,8.80
2019-05-14T07:27:04.019Z,8.80
2019-05-14T07:30:09.140Z,8.80
2019-05-14T07:33:13.427Z,8.80
2019-05-14T07:36:18.889Z,8.90
2019-05-14T07:39:23.459Z,8.90
2019-05-14T07:42:28.872Z,8.90
2019-05-14T07:45:33.640Z,8.90
2019-05-14T07:48:39.166Z,8.90
2019-05-14T07:51:43.869Z,8.90
2019-05-14T07:54:50.363Z,8.90
2019-05-14T07:57:54.362Z,8.90
2019-05-14T08:00:58.829Z,8.90
2019-05-14T08:04:03.235Z,8.90
2019-05-14T08:07:09.020Z,8.90
2019-05-14T08:10:14.619Z,8.90
2019-05-14T08:13:19.208Z,9.00
2019-05-14T08:16:23.665Z,9.00
2019-05-14T08:19:31.451Z,9.00
2019-05-14T08:22:34.351Z,9.00
2019-05-14T08:25:39.115Z,9.10
2019-05-14T08:28:43.558Z,9.10
2019-05-14T08:31:48.766Z,9.10
2019-05-14T08:34:53.359Z,9.10
2019-05-14T08:38:07.583Z,9.20
2019-05-14T08:41:04.040Z,9.20
2019-05-14T08:44:08.722Z,9.20
2019-05-14T08:47:13.051Z,9.10
2019-05-14T08:50:19.534Z,9.10
2019-05-14T08:53:24.245Z,9.20
2019-05-14T08:56:28.651Z,9.20
2019-05-14T08:59:33.098Z,9.20
2019-05-14T09:02:39.311Z,9.20
2019-05-14T09:05:43.507Z,9.20
2019-05-14T09:08:49.561Z,9.30
2019-05-14T09:11:53.927Z,9.30
2019-05-14T09:14:58.904Z,9.40
2019-05-14T09:18:03.862Z,9.40
2019-05-14T09:21:10.278Z,9.40
2019-05-14T09:24:14.331Z,9.40
2019-05-14T09:27:21.837Z,9.50
2019-05-14T09:30:28.826Z,9.50
2019-05-14T09:33:32.780Z,9.50
2019-05-14T09:36:39.449Z,9.50
2019-05-14T09:39:43.095Z,9.50
2019-05-14T09:42:49.966Z,9.50
2019-05-14T09:45:53.523Z,9.50
2019-05-14T09:48:58.871Z,9.50
2019-05-14T09:52:03.410Z,9.60
2019-05-14T09:55:09.394Z,9.50
2019-05-14T09:58:13.891Z,9.60
2019-05-14T10:01:19.706Z,9.60
2019-05-14T10:04:24.120Z,9.60
2019-05-14T10:07:28.792Z,9.60
2019-05-14T10:10:33.473Z,9.60
2019-05-14T10:13:39.258Z,9.60
2019-05-14T10:16:43.940Z,9.60
2019-05-14T10:19:49.729Z,9.60
2019-05-14T10:22:54.445Z,9.60
2019-05-14T10:25:58.724Z,9.60
2019-05-14T10:29:03.117Z,9.60
2019-05-14T10:32:08.766Z,9.60
2019-05-14T10:35:13.586Z,9.60
2019-05-14T10:38:18.945Z,9.50
2019-05-14T10:41:23.845Z,9.60
2019-05-14T10:44:29.275Z,9.50
2019-05-14T10:47:33.967Z,9.50
2019-05-14T10:50:55.813Z,9.50
2019-05-14T10:53:44.406Z,9.50
2019-05-14T10:56:49.496Z,9.60
2019-05-14T10:59:54.144Z,9.60
2019-05-14T11:02:58.475Z,9.70
2019-05-14T11:06:02.919Z,9.60
2019-05-14T11:09:09.156Z,9.70
2019-05-14T11:12:13.894Z,9.70
2019-05-14T11:15:19.162Z,9.70
2019-05-14T11:18:23.568Z,9.70
2019-05-14T11:21:30.106Z,9.70
2019-05-14T11:24:34.166Z,9.80
2019-05-14T11:27:39.003Z,9.80
2019-05-14T11:30:43.582Z,9.80
2019-05-14T11:33:49.778Z,9.80
2019-05-14T11:36:54.480Z,9.90
2019-05-14T11:39:58.939Z,9.90
2019-05-14T11:43:03.546Z,9.90
2019-05-14T11:46:08.631Z,9.90
2019-05-14T11:49:13.574Z,9.90
2019-05-14T11:52:18.167Z,9.90
2019-05-14T11:55:22.536Z,9.90
2019-05-14T11:58:29.250Z,9.90
2019-05-14T12:01:33.370Z,9.90
2019-05-14T12:04:39.118Z,9.90
2019-05-14T12:07:43.690Z,9.90
2019-05-14T12:10:48.371Z,9.90
2019-05-14T12:13:52.974Z,9.90
2019-05-14T12:17:00.062Z,9.80
2019-05-14T12:20:03.565Z,9.80
2019-05-14T12:23:09.157Z,9.80
2019-05-14T12:26:13.544Z,9.80
2019-05-14T12:29:17.830Z,9.80
2019-05-14T12:32:22.229Z,9.80
2019-05-14T12:35:29.299Z,9.80
2019-05-14T12:38:32.973Z,9.70
2019-05-14T12:41:38.222Z,9.70
2019-05-14T12:44:44.271Z,9.70
2019-05-14T12:47:51.156Z,9.70
2019-05-14T12:50:55.600Z,9.60
2019-05-14T12:54:00.229Z,9.60
2019-05-14T12:57:04.768Z,9.60
2019-05-14T13:00:13.070Z,9.60
2019-05-14T13:03:19.001Z,9.60
2019-05-14T13:06:23.591Z,9.50
2019-05-14T13:09:28.180Z,9.50
2019-05-14T13:12:32.686Z,9.50
2019-05-14T13:15:39.378Z,9.50
2019-05-14T13:18:43.375Z,9.50
2019-05-14T13:21:50.531Z,9.50
2019-05-14T13:24:54.487Z,9.60
2019-05-14T13:27:59.515Z,9.60
2019-05-14T13:31:04.520Z,9.60
2019-05-14T13:34:09.105Z,9.60
2019-05-14T13:37:13.621Z,9.60
2019-05-14T13:40:21.208Z,9.60
2019-05-14T13:43:25.820Z,9.70
2019-05-14T13:46:30.554Z,9.70
2019-05-14T13:49:34.966Z,9.80
2019-05-14T13:52:58.315Z,9.70
2019-05-14T13:55:48.284Z,9.80
2019-05-14T13:58:51.697Z,9.80
2019-05-14T14:01:58.878Z,9.80
2019-05-14T14:05:03.963Z,9.80
2019-05-14T14:08:09.686Z,9.80
2019-05-14T14:11:14.996Z,9.80
2019-05-14T14:14:23.615Z,9.90
2019-05-14T14:17:29.289Z,9.80
2019-05-14T14:20:33.871Z,9.80
2019-05-14T14:23:39.472Z,9.80
2019-05-14T14:26:48.770Z,9.80
2019-05-14T14:29:52.928Z,9.80
2019-05-14T14:32:58.763Z,9.80
2019-05-14T14:36:04.694Z,9.80
2019-05-14T14:39:09.945Z,9.80
2019-05-14T14:42:19.246Z,9.80
2019-05-14T14:45:22.772Z,9.80
2019-05-14T14:48:30.243Z,9.80
2019-05-14T14:51:33.633Z,9.80
2019-05-14T14:54:38.498Z,9.80
2019-05-14T14:57:45.727Z,9.80
2019-05-14T15:00:49.483Z,9.80
2019-05-14T15:03:55.336Z,9.80
2019-05-14T15:06:59.964Z,9.80
2019-05-14T15:10:05.430Z,9.80
2019-05-14T15:13:11.269Z,9.80
2019-05-14T15:16:16.292Z,9.80
2019-05-14T15:19:21.292Z,9.70
2019-05-14T15:22:30.439Z,9.80
2019-05-14T15:25:32.816Z,9.80
2019-05-14T15:28:38.680Z,9.80
2019-05-14T15:31:49.246Z,9.80
2019-05-14T15:34:53.651Z,9.80
2019-05-14T15:37:59.005Z,9.80
2019-05-14T15:41:03.974Z,9.70
2019-05-14T15:44:09.048Z,9.70
2019-05-14T15:47:13.895Z,9.70
2019-05-14T15:50:19.995Z,9.70
2019-05-14T15:53:24.790Z,9.70
2019-05-14T15:56:30.046Z,9.70
2019-05-14T15:59:34.768Z,9.60
2019-05-14T16:02:40.003Z,9.70
2019-05-14T16:05:44.612Z,9.70
2019-05-14T16:08:49.131Z,9.70
2019-05-14T16:11:55.366Z,9.70
2019-05-14T16:14:59.739Z,9.80
2019-05-14T16:18:11.102Z,9.80
2019-05-14T16:21:10.864Z,9.70
2019-05-14T16:24:19.281Z,9.80
2019-05-14T16:27:22.888Z,9.70
2019-05-14T16:30:28.859Z,9.80
2019-05-14T16:33:33.746Z,9.80
2019-05-14T16:36:41.305Z,9.70
2019-05-14T16:39:44.970Z,9.70
2019-05-14T16:42:49.655Z,9.70
2019-05-14T16:45:54.162Z,9.70
2019-05-14T16:48:58.841Z,9.70
2019-05-14T16:52:03.291Z,9.70
2019-05-14T16:55:23.031Z,9.70
2019-05-14T16:58:19.587Z,9.70
2019-05-14T17:01:22.855Z,9.70
2019-05-14T17:04:29.322Z,9.70
2019-05-14T17:07:33.397Z,9.70
2019-05-14T17:10:38.794Z,9.70
2019-05-14T17:13:43.448Z,9.70
2019-05-14T17:16:49.104Z,9.70
2019-05-14T17:19:54.396Z,9.70
2019-05-14T17:22:59.439Z,9.70
2019-05-14T17:26:03.926Z,9.70
2019-05-14T17:29:08.891Z,9.70
2019-05-14T17:32:13.295Z,9.70
2019-05-14T17:35:19.565Z,9.70
2019-05-14T17:38:24.450Z,9.70
2019-05-14T17:41:29.114Z,9.70
2019-05-14T17:44:34.769Z,9.70
2019-05-14T17:47:41.608Z,9.60
2019-05-14T17:50:49.166Z,9.70
2019-05-14T17:53:54.534Z,9.70
2019-05-14T17:56:59.593Z,9.60
2019-05-14T18:00:04.473Z,9.60
2019-05-14T18:03:09.103Z,9.60
2019-05-14T18:06:13.567Z,9.60
2019-05-14T18:09:19.782Z,9.60
2019-05-14T18:12:25.525Z,9.60
2019-05-14T18:15:30.585Z,9.60
2019-05-14T18:18:35.167Z,9.60
2019-05-14T18:21:39.853Z,9.50
2019-05-14T18:24:44.819Z,9.50
2019-05-14T18:27:50.022Z,9.50
2019-05-14T18:30:55.220Z,9.50
2019-05-14T18:34:02.444Z,9.50
2019-05-14T18:37:13.768Z,9.50
2019-05-14T18:40:18.214Z,9.50
2019-05-14T18:43:23.215Z,9.50
2019-05-14T18:46:28.757Z,9.40
2019-05-14T18:49:34.985Z,9.40
2019-05-14T18:52:40.387Z,9.40
2019-05-14T18:55:48.795Z,9.40
2019-05-14T18:58:54.525Z,9.40
2019-05-14T19:01:59.561Z,9.40
2019-05-14T19:05:04.661Z,9.30
2019-05-14T19:08:10.674Z,9.30
2019-05-14T19:11:15.608Z,9.30
2019-05-14T19:14:22.177Z,9.30
2019-05-14T19:17:28.407Z,9.30
2019-05-14T19:20:34.827Z,9.30
2019-05-14T19:23:39.472Z,9.30
2019-05-14T19:26:44.658Z,9.20
2019-05-14T19:29:49.300Z,9.30
2019-05-14T19:32:54.054Z,9.20
2019-05-14T19:35:58.819Z,9.30
2019-05-14T19:39:04.496Z,9.30
2019-05-14T19:42:09.600Z,9.20
2019-05-14T19:45:17.307Z,9.20
2019-05-14T19:48:22.503Z,9.20
2019-05-14T19:51:27.890Z,9.20
2019-05-14T19:54:34.344Z,9.20
2019-05-14T19:57:39.286Z,9.20
2019-05-14T20:00:44.268Z,9.20
2019-05-14T20:03:49.370Z,9.20
2019-05-14T20:06:54.126Z,9.20
2019-05-14T20:09:58.887Z,9.20
2019-05-14T20:13:03.585Z,9.10
2019-05-14T20:16:08.624Z,9.10
2019-05-14T20:19:14.195Z,9.10
2019-05-14T20:22:22.686Z,9.10
2019-05-14T20:25:28.045Z,9.10
2019-05-14T20:28:32.900Z,9.10
2019-05-14T20:31:38.937Z,9.10
2019-05-14T20:34:45.634Z,9.10
2019-05-14T20:37:50.067Z,9.00
2019-05-14T20:40:54.790Z,9.00
2019-05-14T20:44:01.477Z,9.00
2019-05-14T20:47:05.903Z,9.00
2019-05-14T20:50:14.546Z,9.00
2019-05-14T20:53:19.489Z,9.00
2019-05-14T20:56:23.788Z,9.00
2019-05-14T20:59:28.578Z,9.00
2019-05-14T21:02:35.250Z,9.00
2019-05-14T21:05:42.443Z,9.00
2019-05-14T21:08:45.704Z,9.00
2019-05-14T21:11:50.121Z,9.00
2019-05-14T21:14:54.903Z,9.00
2019-05-14T21:18:00.530Z,9.00
2019-05-14T21:21:04.785Z,9.00
2019-05-14T21:24:09.000Z,9.00
2019-05-14T21:27:13.266Z,9.00
2019-05-14T21:30:18.965Z,9.00
2019-05-14T21:33:23.694Z,9.00
2019-05-14T21:36:28.424Z,9.00
2019-05-14T21:39:32.810Z,9.00
2019-05-14T21:42:38.563Z,9.00
2019-05-14T21:45:44.344Z,8.90
2019-05-14T21:48:48.650Z,9.00
2019-05-14T21:51:53.051Z,8.90
2019-05-14T21:54:59.755Z,8.90
2019-05-14T21:58:03.960Z,9.00
2019-05-14T22:01:10.061Z,9.00
2019-05-14T22:04:14.420Z,9.00
2019-05-14T22:07:21.389Z,8.90
2019-05-14T22:10:28.835Z,9.00
2019-05-14T22:13:32.699Z,9.00
2019-05-14T22:16:38.177Z,9.00
2019-05-14T22:19:42.814Z,9.00
2019-05-14T22:22:48.362Z,9.00
2019-05-14T22:25:52.886Z,9.00
2019-05-14T22:28:58.656Z,9.00
2019-05-14T22:32:03.486Z,8.90
2019-05-14T22:35:08.684Z,9.00
2019-05-14T22:38:13.090Z,9.00
2019-05-14T22:41:18.605Z,9.00
2019-05-14T22:44:23.175Z,9.00
2019-05-14T22:47:27.464Z,9.00
2019-05-14T22:50:33.561Z,9.00
2019-05-14T22:53:38.854Z,9.00
2019-05-14T22:56:43.519Z,9.00
2019-05-14T22:59:48.593Z,9.00
2019-05-14T23:02:53.459Z,9.00
2019-05-14T23:05:58.684Z,9.00
2019-05-14T23:09:04.321Z,9.00
2019-05-14T23:12:12.101Z,9.00
2019-05-14T23:15:15.426Z,9.00
2019-05-14T23:18:20.487Z,9.00
2019-05-14T23:21:24.905Z,9.00
2019-05-14T23:24:29.271Z,9.00
2019-05-14T23:27:33.748Z,9.00
2019-05-14T23:30:38.836Z,9.00
2019-05-14T23:33:43.427Z,9.00
2019-05-14T23:36:48.318Z,9.00
2019-05-14T23:39:52.927Z,9.00
2019-05-14T23:42:58.864Z,9.00
2019-05-14T23:46:03.290Z,9.10
2019-05-14T23:49:08.909Z,9.00
2019-05-14T23:52:13.736Z,9.10
2019-05-14T23:55:18.397Z,9.10
2019-05-14T23:58:22.691Z,9.10
